Oundle, United Kingdom
Current Conditions -  °F | °C
As of 5:50 AM on Sunday 21 Dec 2014 (Local Time) from EGXT Reporting Station
Broken Clouds Broken Clouds  
Wind Chill: 36°   Ceiling: 3000
Heat Index: 43°   Visibility: 6mi
Dew Point: 41°   Wind: 13mph
Humidity: 93%   Direction: 220°SW
Pressure: 30.27"   Gusts: NA
Location:  52.48°N, 0.47°W
Report Text: EGXT 210550Z AUTO 22011KT 9999 BKN030/// BKN230/// 06/05 Q1025
Loading
Personal Weather Stations






























Interactive Weather Map New forecast layout! Learn more

10-Day Weather Forecast

Advertisements
Track Severe Weather on mobile